Time;durP1;ratioP1;P1;durP2;ratioP2;P2;SDS_P1;SDS_P2;PMS_P1;PMS_P2;Temp;Humidity;BMP_temperature;BMP_pressure;BME280_temperature;BME280_humidity;BME280_pressure;Samples;Min_cycle;Max_cycle;Signal;HPM_P1;HPM_P2
2023/12/10 00:02:11;;;;;;;10.27;4.20;;;;;;;-5.71;72.54;100335.75;5024318;28;20114;-57
2023/12/10 00:04:44;;;;;;;9.70;3.92;;;;;;;-5.60;72.84;100348.13;5013794;28;20199;-59
2023/12/10 00:07:14;;;;;;;8.68;4.32;;;;;;;-5.49;72.91;100341.88;5024437;28;20482;-58
2023/12/10 00:09:45;;;;;;;11.02;3.63;;;;;;;-5.44;73.28;100325.19;5013384;28;20053;-59
2023/12/10 00:12:15;;;;;;;9.98;3.88;;;;;;;-5.23;73.38;100341.47;5023808;28;20137;-58
2023/12/10 00:14:52;;;;;;;8.52;3.17;;;;;;;-5.35;72.09;100335.78;5013061;28;20155;-58
2023/12/10 00:17:24;;;;;;;9.55;3.72;;;;;;;-5.42;71.91;100328.66;5015401;28;20118;-57
2023/12/10 00:19:56;;;;;;;7.93;3.63;;;;;;;-5.38;72.36;100328.00;5013495;28;20671;-57
2023/12/10 00:22:27;;;;;;;9.18;4.45;;;;;;;-5.37;72.56;100327.19;5017409;28;20055;-58
2023/12/10 00:24:58;;;;;;;11.60;3.97;;;;;;;-5.23;73.49;100323.66;5025080;28;20048;-58
2023/12/10 00:27:28;;;;;;;9.35;3.88;;;;;;;-5.36;72.31;100328.97;5014466;28;20752;-58
2023/12/10 00:29:59;;;;;;;10.10;4.07;;;;;;;-5.29;72.67;100336.09;5024455;28;20501;-57
2023/12/10 00:32:29;;;;;;;8.13;3.33;;;;;;;-5.22;72.20;100343.25;5013925;28;20073;-58
2023/12/10 00:35:02;;;;;;;12.13;3.30;;;;;;;-5.33;71.67;100344.38;5023637;28;20049;-58
2023/12/10 00:37:32;;;;;;;9.18;3.40;;;;;;;-5.50;71.77;100350.31;5013722;28;20060;-57
2023/12/10 00:40:03;;;;;;;7.53;3.20;;;;;;;-5.79;71.21;100301.41;5024016;28;20127;-59
2023/12/10 00:42:34;;;;;;;11.00;3.45;;;;;;;-5.53;71.35;100347.63;5012997;28;20131;-57
2023/12/10 00:45:05;;;;;;;7.55;3.67;;;;;;;-5.50;70.71;100350.31;5022894;28;20049;-57
2023/12/10 00:47:36;;;;;;;8.43;3.72;;;;;;;-5.46;70.95;100352.22;5013151;28;20773;-57
2023/12/10 00:50:10;;;;;;;7.90;3.00;;;;;;;-5.47;70.82;100345.38;5023257;28;20067;-57
2023/12/10 00:52:40;;;;;;;11.02;4.13;;;;;;;-5.49;70.16;100367.34;5013223;28;20052;-59
2023/12/10 00:55:11;;;;;;;11.35;3.90;;;;;;;-5.53;70.05;100360.38;5016941;28;20495;-57
2023/12/10 00:57:42;;;;;;;7.55;3.22;;;;;;;-5.50;69.68;100365.59;5006370;28;20422;-58
2023/12/10 01:00:13;;;;;;;11.93;4.15;;;;;;;-5.51;69.45;100351.13;5023272;28;20142;-59
2023/12/10 01:02:44;;;;;;;7.00;3.55;;;;;;;-5.31;69.86;100359.75;5012584;28;20057;-57
2023/12/10 01:05:16;;;;;;;11.80;4.25;;;;;;;-5.32;68.92;100366.50;5022525;28;20084;-59
2023/12/10 01:07:47;;;;;;;8.02;3.13;;;;;;;-5.49;67.64;100364.78;5012500;28;20054;-59
2023/12/10 01:10:19;;;;;;;7.65;3.13;;;;;;;-5.49;67.50;100363.16;5023041;28;20048;-58
2023/12/10 01:12:49;;;;;;;11.63;4.28;;;;;;;-5.36;67.52;100354.44;5012707;28;20079;-57
2023/12/10 01:15:29;;;;;;;9.23;3.20;;;;;;;-5.43;66.99;100367.66;5022826;28;20048;-57
2023/12/10 01:18:01;;;;;;;7.90;3.00;;;;;;;-5.61;67.37;100371.84;5012232;28;20045;-57
2023/12/10 01:20:34;;;;;;;8.65;3.38;;;;;;;-5.61;67.57;100387.13;5013244;28;20146;-58
2023/12/10 01:23:04;;;;;;;11.90;3.08;;;;;;;-5.57;67.33;100389.00;5023367;28;20072;-57
2023/12/10 01:25:35;;;;;;;5.20;2.17;;;;;;;-6.12;63.78;100372.69;5012597;28;20084;-57
2023/12/10 01:28:06;;;;;;;4.80;2.42;;;;;;;-6.63;61.79;100386.94;5023042;28;20084;-57
2023/12/10 01:30:37;;;;;;;7.25;3.00;;;;;;;-6.80;63.49;100372.44;5008443;28;20073;-58
2023/12/10 01:33:07;;;;;;;8.40;2.83;;;;;;;-6.56;64.89;100378.88;5007300;28;20550;-57
2023/12/10 01:35:40;;;;;;;10.23;3.90;;;;;;;-6.19;65.66;100365.56;5028954;28;20787;-57
2023/12/10 01:38:11;;;;;;;7.75;3.00;;;;;;;-5.98;64.87;100370.88;5024635;28;20534;-57
2023/12/10 01:40:42;;;;;;;5.60;2.53;;;;;;;-5.88;64.04;100372.19;5013549;28;20056;-57
2023/12/10 01:43:12;;;;;;;5.35;2.70;;;;;;;-5.69;64.52;100373.97;5028827;28;20049;-58
2023/12/10 01:45:43;;;;;;;10.88;3.85;;;;;;;-5.52;64.57;100359.56;5029267;28;20048;-57
2023/12/10 01:48:14;;;;;;;6.30;2.88;;;;;;;-5.40;65.35;100377.97;5042184;28;20076;-59
2023/12/10 01:50:48;;;;;;;5.88;3.25;;;;;;;-5.44;65.26;100365.91;5032044;28;20117;-58
2023/12/10 01:53:18;;;;;;;11.50;2.35;;;;;;;-5.38;64.90;100368.75;5041053;28;20537;-57
2023/12/10 01:55:49;;;;;;;7.78;3.20;;;;;;;-5.36;65.14;100359.53;5023403;28;20052;-59
2023/12/10 01:58:20;;;;;;;8.75;2.90;;;;;;;-5.04;65.55;100358.53;5042810;28;20048;-58
2023/12/10 02:00:50;;;;;;;6.95;2.42;;;;;;;-4.83;64.80;100348.44;5031632;28;20397;-57
2023/12/10 02:03:21;;;;;;;11.23;3.20;;;;;;;-4.77;62.79;100343.66;5026590;28;20156;-58
2023/12/10 02:05:53;;;;;;;7.97;3.03;;;;;;;-4.75;61.78;100345.41;5013849;28;20075;-57
2023/12/10 02:08:28;;;;;;;7.65;3.58;;;;;;;-4.96;59.93;100345.28;5010008;28;20073;-57
2023/12/10 02:11:00;;;;;;;9.88;4.32;;;;;;;-4.81;61.30;100323.91;5018768;28;20053;-57
2023/12/10 02:13:31;;;;;;;12.52;4.03;;;;;;;-5.00;60.81;100334.06;5013771;28;20162;-58
2023/12/10 02:16:01;;;;;;;5.75;2.70;;;;;;;-4.88;60.89;100321.88;5019256;28;20052;-56
2023/12/10 02:18:32;;;;;;;7.28;3.20;;;;;;;-5.26;58.17;100320.97;5002495;28;20061;-58
2023/12/10 02:21:05;;;;;;;6.53;2.70;;;;;;;-5.58;58.57;100321.06;5025422;28;20137;-57
2023/12/10 02:23:48;;;;;;;6.70;2.72;;;;;;;-5.31;59.08;100317.31;5016363;28;20045;-58
2023/12/10 02:26:20;;;;;;;6.97;2.50;;;;;;;-5.05;59.53;100304.94;5025864;28;20044;-57
2023/12/10 02:28:52;;;;;;;8.80;2.58;;;;;;;-4.93;59.76;100305.50;5011725;28;20049;-57
2023/12/10 02:31:24;;;;;;;8.35;2.97;;;;;;;-4.78;59.79;100300.25;5022797;28;20048;-57
2023/12/10 02:33:54;;;;;;;6.85;2.75;;;;;;;-5.01;59.21;100230.38;5010513;28;20773;-57
2023/12/10 02:36:26;;;;;;;9.27;3.20;;;;;;;-4.45;59.39;100280.47;5024998;28;20422;-58
2023/12/10 02:38:56;;;;;;;3.80;2.20;;;;;;;-4.37;59.87;100274.03;5026277;28;20057;-57
2023/12/10 02:41:29;;;;;;;6.85;2.65;;;;;;;-4.48;58.63;100280.34;5017138;28;20144;-58
2023/12/10 02:43:59;;;;;;;6.22;2.50;;;;;;;-4.49;58.46;100272.59;5039467;28;20109;-58
2023/12/10 02:46:30;;;;;;;7.75;2.40;;;;;;;-4.41;59.21;100269.59;5034814;28;20588;-57
2023/12/10 02:49:00;;;;;;;9.10;2.90;;;;;;;-4.41;58.74;100272.16;5045735;28;20845;-58
2023/12/10 02:51:31;;;;;;;8.57;3.40;;;;;;;-4.37;57.80;100268.06;5034597;28;20057;-57
2023/12/10 02:54:02;;;;;;;6.03;3.03;;;;;;;-4.84;56.23;100262.59;5044205;28;20064;-57
2023/12/10 02:56:34;;;;;;;8.60;2.95;;;;;;;-4.86;57.66;100225.97;5030353;28;20056;-58
2023/12/10 02:59:04;;;;;;;7.20;3.95;;;;;;;-4.56;58.61;100261.28;5022552;28;20072;-57
2023/12/10 03:01:35;;;;;;;8.07;4.05;;;;;;;-4.68;57.66;100248.00;5014438;28;20053;-57
2023/12/10 03:04:06;;;;;;;8.88;3.47;;;;;;;-4.64;57.48;100243.09;5039373;28;20537;-56
2023/12/10 03:06:37;;;;;;;4.93;2.88;;;;;;;-4.72;57.53;100238.44;5034129;28;20478;-57
2023/12/10 03:09:08;;;;;;;5.75;3.40;;;;;;;-4.81;58.01;100224.50;5044497;28;20045;-57
2023/12/10 03:11:40;;;;;;;8.95;3.92;;;;;;;-5.12;57.76;100229.00;5015905;28;20084;-59
2023/12/10 03:14:11;;;;;;;10.82;3.33;;;;;;;-5.22;59.03;100215.88;5018848;28;20106;-58
2023/12/10 03:16:43;;;;;;;6.40;3.08;;;;;;;-5.25;60.36;100215.72;5009024;28;20064;-58
2023/12/10 03:19:13;;;;;;;7.57;3.90;;;;;;;-5.40;60.06;100222.66;5019316;28;20775;-56
2023/12/10 03:21:44;;;;;;;6.63;2.55;;;;;;;-5.67;60.52;100220.53;5010863;28;20678;-57
2023/12/10 03:24:15;;;;;;;4.68;2.42;;;;;;;-5.85;61.96;100214.56;5018913;28;20045;-58
2023/12/10 03:26:47;;;;;;;68.55;35.78;;;;;;;-6.04;62.74;100204.31;5010923;28;22286;-59
2023/12/10 03:29:17;;;;;;;11.23;5.03;;;;;;;-5.89;64.17;100208.47;5021017;28;20438;-57
2023/12/10 03:31:48;;;;;;;7.10;3.63;;;;;;;-5.92;65.19;100192.16;5010670;28;20828;-56
2023/12/10 03:34:18;;;;;;;7.00;2.53;;;;;;;-5.93;65.17;100190.44;5023875;28;20070;-57
2023/12/10 03:36:49;;;;;;;7.35;3.45;;;;;;;-5.88;65.97;100199.16;5010617;28;20061;-57
2023/12/10 03:39:20;;;;;;;14.75;5.93;;;;;;;-5.94;67.00;100194.69;5021424;28;20048;-58
2023/12/10 03:41:52;;;;;;;20.38;9.10;;;;;;;-5.93;67.86;100190.44;5014575;28;20049;-58
2023/12/10 03:44:23;;;;;;;9.60;4.03;;;;;;;-5.98;68.07;100202.09;5023579;28;20449;-58
2023/12/10 03:46:54;;;;;;;7.10;2.60;;;;;;;-6.08;68.83;100201.63;5010435;28;20060;-57
2023/12/10 03:49:24;;;;;;;4.50;2.53;;;;;;;-6.14;69.57;100196.25;5024064;28;20055;-57
2023/12/10 03:51:55;;;;;;;7.93;2.95;;;;;;;-6.17;69.68;100216.44;5012845;28;20137;-57
2023/12/10 03:54:26;;;;;;;6.20;3.08;;;;;;;-6.26;70.21;100210.00;5016370;28;20106;-57
2023/12/10 03:56:59;;;;;;;8.52;2.78;;;;;;;-6.32;70.77;100205.50;5023310;28;20135;-59
2023/12/10 03:59:29;;;;;;;8.52;4.35;;;;;;;-6.33;71.35;100219.03;5010914;28;20725;-59
2023/12/10 04:01:58;;;;;;;5.80;3.10;;;;;;;-6.64;71.54;100211.50;5023157;28;20150;-57
2023/12/10 04:04:29;;;;;;;5.85;2.55;;;;;;;-6.76;71.85;100212.63;5013180;28;20187;-58
2023/12/10 04:07:00;;;;;;;3.67;2.35;;;;;;;-7.17;72.54;100212.97;5022574;28;20115;-58
2023/12/10 04:09:30;;;;;;;6.18;2.65;;;;;;;-7.65;74.74;100227.28;5011468;28;20450;-57
2023/12/10 04:12:03;;;;;;;4.78;2.45;;;;;;;-8.66;76.67;100180.97;5024354;28;20099;-58
2023/12/10 04:14:33;;;;;;;5.72;2.95;;;;;;;-8.71;77.34;100239.84;5014061;28;20059;-58
2023/12/10 04:17:05;;;;;;;8.32;4.43;;;;;;;-9.28;78.66;100182.38;5024262;28;20063;-58
2023/12/10 04:19:36;;;;;;;4.25;2.25;;;;;;;-9.21;77.97;100252.84;5014047;28;20080;-56
2023/12/10 04:22:07;;;;;;;4.68;2.80;;;;;;;-9.28;78.74;100253.25;5024828;28;20099;-57
2023/12/10 04:24:37;;;;;;;5.47;3.00;;;;;;;-9.27;79.32;100254.97;5013937;28;20122;-59
2023/12/10 04:27:10;;;;;;;6.97;3.10;;;;;;;-9.09;79.19;100256.91;5023959;28;20052;-57
2023/12/10 04:29:41;;;;;;;7.18;3.70;;;;;;;-9.12;79.35;100281.22;5013849;28;20053;-57
2023/12/10 04:32:12;;;;;;;8.38;4.55;;;;;;;-9.02;79.19;100261.56;5023565;28;20063;-57
2023/12/10 04:34:43;;;;;;;5.72;2.58;;;;;;;-8.97;79.05;100260.19;4994290;28;20056;-56
2023/12/10 04:37:13;;;;;;;11.23;4.72;;;;;;;-8.99;77.81;100264.28;5004387;28;20045;-58
2023/12/10 04:39:45;;;;;;;18.90;9.27;;;;;;;-8.97;77.39;100265.25;5011991;28;20154;-58
2023/12/10 04:42:17;;;;;;;4.97;2.78;;;;;;;-9.15;76.90;100265.84;5018915;28;20057;-58
2023/12/10 04:44:47;;;;;;;5.13;2.25;;;;;;;-9.32;77.08;100271.53;5010015;28;20052;-57
2023/12/10 04:47:18;;;;;;;8.23;3.08;;;;;;;-9.55;78.93;100253.25;5022609;28;20041;-58
2023/12/10 04:49:49;;;;;;;2.55;2.08;;;;;;;-9.45;78.46;100262.28;5009564;28;20075;-58
2023/12/10 04:52:20;;;;;;;6.03;2.47;;;;;;;-9.55;77.81;100273.47;5022377;28;20072;-58
2023/12/10 04:54:50;;;;;;;5.20;2.65;;;;;;;-9.41;79.68;100281.06;5009102;28;20056;-58
2023/12/10 04:57:23;;;;;;;5.30;2.60;;;;;;;-9.35;79.47;100266.28;5022754;28;20499;-58
2023/12/10 04:59:53;;;;;;;6.20;2.50;;;;;;;-9.32;79.94;100266.47;5009004;28;20466;-57
2023/12/10 05:02:24;;;;;;;3.70;2.10;;;;;;;-9.22;79.00;100272.97;5021707;28;20060;-57
2023/12/10 05:04:55;;;;;;;6.95;2.83;;;;;;;-9.26;78.54;100271.94;5011684;28;20250;-57
2023/12/10 05:07:25;;;;;;;4.45;2.47;;;;;;;-9.34;78.87;100273.09;5019403;28;20045;-57
2023/12/10 05:09:56;;;;;;;6.57;2.42;;;;;;;-9.35;79.52;100286.53;5022030;28;20055;-57
2023/12/10 05:12:28;;;;;;;3.67;2.40;;;;;;;-9.34;80.13;100290.78;5016427;28;20044;-58
2023/12/10 05:14:59;;;;;;;5.60;2.50;;;;;;;-9.37;79.67;100304.13;5022580;28;20778;-58
2023/12/10 05:17:30;;;;;;;5.88;2.78;;;;;;;-9.35;79.68;100306.75;5013502;28;20080;-58
2023/12/10 05:20:00;;;;;;;3.60;2.58;;;;;;;-9.29;80.47;100299.53;5023523;28;20053;-58
2023/12/10 05:22:32;;;;;;;4.07;2.13;;;;;;;-8.99;80.29;100292.13;5013146;28;20048;-58
2023/12/10 05:25:03;;;;;;;3.33;2.30;;;;;;;-8.70;80.04;100306.56;5023931;28;20398;-57
2023/12/10 05:27:35;;;;;;;4.13;2.53;;;;;;;-8.46;79.50;100307.19;4996486;28;20148;-57
2023/12/10 05:30:07;;;;;;;4.00;2.35;;;;;;;-8.42;78.19;100311.63;5012474;28;20160;-57
2023/12/10 05:32:38;;;;;;;3.67;2.08;;;;;;;-8.37;77.66;100307.69;5012872;28;20048;-58
2023/12/10 05:35:09;;;;;;;8.32;2.45;;;;;;;-8.42;75.95;100310.78;5022988;28;20056;-58
2023/12/10 05:37:39;;;;;;;5.07;2.95;;;;;;;-8.49;76.01;100309.50;5013043;28;20360;-57
2023/12/10 05:40:11;;;;;;;3.42;2.50;;;;;;;-8.50;75.70;100315.38;5023352;28;20083;-57
2023/12/10 05:42:43;;;;;;;7.50;2.45;;;;;;;-8.40;75.28;100315.16;5012784;28;20071;-57
2023/12/10 05:45:14;;;;;;;3.38;2.20;;;;;;;-8.33;74.79;100319.78;5022665;28;20654;-57
2023/12/10 05:47:45;;;;;;;4.03;1.88;;;;;;;-8.37;74.14;100322.91;5012525;28;20068;-58
2023/12/10 05:50:16;;;;;;;5.00;2.70;;;;;;;-8.32;73.98;100321.50;5024678;28;20053;-58
2023/12/10 05:52:46;;;;;;;4.97;2.33;;;;;;;-8.34;73.72;100318.00;5016550;28;20721;-58
2023/12/10 05:55:17;;;;;;;4.45;2.20;;;;;;;-8.39;73.88;100321.91;5027098;28;20127;-58
2023/12/10 05:57:49;;;;;;;4.30;2.38;;;;;;;-8.33;74.05;100334.97;5016249;28;20115;-57
2023/12/10 06:00:20;;;;;;;4.70;1.95;;;;;;;-8.25;74.36;100337.97;5026366;28;20061;-57
2023/12/10 06:02:51;;;;;;;5.07;1.90;;;;;;;-8.25;74.79;100346.44;5016545;28;20049;-58
2023/12/10 06:05:21;;;;;;;4.32;2.22;;;;;;;-8.22;75.03;100342.34;5017811;28;20080;-58
2023/12/10 06:07:52;;;;;;;5.53;2.10;;;;;;;-8.27;75.29;100339.53;4996731;28;20057;-58
2023/12/10 06:10:22;;;;;;;5.05;1.98;;;;;;;-8.29;75.58;100341.97;5026622;28;20057;-57
2023/12/10 06:12:55;;;;;;;8.90;3.05;;;;;;;-8.28;75.53;100336.13;5016474;28;20203;-58
2023/12/10 06:15:25;;;;;;;8.93;2.83;;;;;;;-8.23;75.14;100333.00;5025285;28;20049;-57
2023/12/10 06:17:56;;;;;;;4.47;2.28;;;;;;;-8.04;75.19;100333.28;5026094;28;20095;-58
2023/12/10 06:20:27;;;;;;;6.43;2.42;;;;;;;-8.32;74.78;100296.16;5017677;28;20563;-59
2023/12/10 06:25:41;;;;;;;4.75;2.10;;;;;;;-8.12;74.49;100334.50;5009794;28;20064;-57
2023/12/10 06:28:14;;;;;;;3.20;2.13;;;;;;;-8.24;73.97;100344.78;5024002;28;20057;-57
2023/12/10 06:30:44;;;;;;;4.47;1.83;;;;;;;-8.30;72.93;100340.22;5020435;28;20048;-58
2023/12/10 06:33:15;;;;;;;4.07;2.25;;;;;;;-8.37;72.69;100338.09;5026714;28;20045;-58
2023/12/10 06:35:46;;;;;;;3.63;2.17;;;;;;;-8.42;73.98;100336.97;5019391;28;20066;-58
2023/12/10 06:38:17;;;;;;;6.05;2.28;;;;;;;-8.57;74.44;100293.00;5032215;28;20139;-58
2023/12/10 06:40:47;;;;;;;4.50;2.20;;;;;;;-8.25;74.91;100332.91;5015340;28;20120;-58
2023/12/10 06:43:21;;;;;;;4.70;2.20;;;;;;;-8.21;74.41;100339.00;5028801;28;20558;-58
2023/12/10 06:45:53;;;;;;;6.57;2.30;;;;;;;-8.51;73.89;100334.78;5022515;28;20137;-58
2023/12/10 06:48:23;;;;;;;2.42;2.05;;;;;;;-8.60;74.86;100333.34;5027301;28;20044;-58
2023/12/10 06:50:54;;;;;;;4.88;2.60;;;;;;;-8.80;74.95;100335.53;5019490;28;20122;-57
2023/12/10 06:53:25;;;;;;;3.75;2.28;;;;;;;-8.82;75.50;100342.16;5030392;28;20048;-58
2023/12/10 06:55:56;;;;;;;5.50;2.15;;;;;;;-8.94;75.60;100337.19;5019583;28;20055;-58
2023/12/10 06:58:28;;;;;;;7.88;3.03;;;;;;;-9.03;76.00;100307.91;5025741;28;20056;-58
2023/12/10 07:00:59;;;;;;;7.65;3.00;;;;;;;-8.76;76.65;100347.59;5030999;28;20114;-58
2023/12/10 07:03:29;;;;;;;5.20;2.75;;;;;;;-8.66;76.81;100355.75;5024148;28;20068;-58
2023/12/10 07:06:03;;;;;;;5.88;1.92;;;;;;;-8.78;76.33;100359.28;5030485;28;20052;-58
2023/12/10 07:08:34;;;;;;;4.90;2.40;;;;;;;-8.90;76.17;100348.41;5021993;28;21244;-59
2023/12/10 07:11:10;;;;;;;8.20;2.63;;;;;;;-8.88;77.55;100351.91;5032625;28;20056;-58
2023/12/10 07:13:42;;;;;;;3.70;2.35;;;;;;;-9.01;76.93;100345.22;5020464;28;21342;-59
2023/12/10 07:16:12;;;;;;;3.03;2.20;;;;;;;-8.99;76.86;100371.47;5030582;28;20059;-59
2023/12/10 07:18:43;;;;;;;5.80;2.65;;;;;;;-9.23;77.04;100334.50;5021928;28;20128;-59
2023/12/10 07:21:14;;;;;;;9.70;3.22;;;;;;;-9.01;77.50;100369.63;5030535;28;20147;-59
2023/12/10 07:23:45;;;;;;;4.95;2.67;;;;;;;-9.15;77.51;100371.31;5019075;28;20074;-58
2023/12/10 07:26:16;;;;;;;7.60;2.72;;;;;;;-9.14;78.12;100373.91;5031377;28;20049;-59
2023/12/10 07:28:48;;;;;;;6.43;2.65;;;;;;;-9.10;78.22;100384.25;5022883;28;20150;-59
2023/12/10 07:31:19;;;;;;;4.18;2.38;;;;;;;-9.35;77.01;100388.59;5030923;28;20100;-58
2023/12/10 07:33:49;;;;;;;4.43;2.15;;;;;;;-9.35;77.68;100392.78;5019199;28;20522;-59
2023/12/10 07:36:20;;;;;;;3.20;2.40;;;;;;;-9.21;78.27;100381.91;5031249;28;20691;-59
2023/12/10 07:38:51;;;;;;;4.82;2.50;;;;;;;-9.05;78.46;100391.34;5021904;28;20072;-59
2023/12/10 07:41:22;;;;;;;5.90;2.50;;;;;;;-9.05;78.25;100403.13;5027763;28;20057;-59
2023/12/10 07:43:54;;;;;;;4.20;2.63;;;;;;;-9.02;78.40;100403.31;5018867;28;20057;-59
2023/12/10 07:46:25;;;;;;;3.30;2.25;;;;;;;-9.05;78.49;100414.13;5028829;28;20138;-59
2023/12/10 07:48:55;;;;;;;9.07;2.65;;;;;;;-9.02;78.56;100414.31;5017991;28;20056;-59
2023/12/10 07:51:26;;;;;;;4.60;2.28;;;;;;;-8.91;78.86;100417.53;5019866;28;20063;-59
2023/12/10 07:53:57;;;;;;;4.60;2.70;;;;;;;-8.80;78.81;100431.75;5030079;28;20052;-59
2023/12/10 07:56:31;;;;;;;5.22;2.90;;;;;;;-8.88;78.14;100427.88;5018954;28;20090;-59
2023/12/10 07:59:03;;;;;;;5.88;3.25;;;;;;;-8.87;77.72;100427.09;5028894;28;20672;-59
2023/12/10 08:01:34;;;;;;;6.53;3.53;;;;;;;-8.88;77.38;100422.81;5019797;28;20949;-59
2023/12/10 08:04:05;;;;;;;8.23;3.10;;;;;;;-8.91;77.32;100432.72;5030722;28;20064;-59
2023/12/10 08:06:36;;;;;;;5.85;2.55;;;;;;;-9.08;77.50;100397.84;5005430;28;20052;-59
2023/12/10 08:09:07;;;;;;;4.18;2.70;;;;;;;-8.87;77.37;100421.16;5024817;28;20114;-59
2023/12/10 08:11:38;;;;;;;6.53;2.85;;;;;;;-8.80;77.36;100441.91;5007690;28;20724;-59
2023/12/10 08:14:10;;;;;;;5.45;3.30;;;;;;;-8.87;77.36;100439.75;5029611;28;20049;-59
2023/12/10 08:16:41;;;;;;;7.20;2.95;;;;;;;-8.92;77.53;100436.03;5017630;28;20131;-58
2023/12/10 08:19:12;;;;;;;6.03;3.25;;;;;;;-9.01;77.49;100448.09;5026935;28;20044;-58
2023/12/10 08:21:42;;;;;;;5.20;3.25;;;;;;;-9.02;77.65;100459.03;5017244;28;20084;-59
2023/12/10 08:24:13;;;;;;;6.90;3.75;;;;;;;-9.02;77.49;100438.78;5030198;28;20574;-59
2023/12/10 08:26:43;;;;;;;7.35;3.40;;;;;;;-9.08;77.00;100453.53;5017458;28;20053;-59
2023/12/10 08:29:15;;;;;;;7.03;3.03;;;;;;;-9.09;77.90;100454.34;5027269;28;20144;-59
2023/12/10 08:31:46;;;;;;;3.90;2.28;;;;;;;-9.09;77.62;100451.81;5020010;28;20070;-59
2023/12/10 08:34:17;;;;;;;3.90;2.40;;;;;;;-8.95;78.12;100461.19;5029907;28;20110;-59
2023/12/10 08:36:47;;;;;;;10.55;2.88;;;;;;;-8.98;76.33;100448.34;5018099;28;20664;-59
2023/12/10 08:39:18;;;;;;;6.45;2.42;;;;;;;-8.95;76.05;100440.91;5027285;28;20049;-59
2023/12/10 08:41:48;;;;;;;4.88;2.28;;;;;;;-8.96;75.82;100444.22;5018030;28;20051;-59
2023/12/10 08:44:21;;;;;;;6.45;2.25;;;;;;;-8.89;76.68;100446.38;5029344;28;20098;-59
2023/12/10 08:46:52;;;;;;;6.53;2.60;;;;;;;-8.89;76.60;100451.44;5017012;28;20104;-59
2023/12/10 08:49:23;;;;;;;4.13;2.10;;;;;;;-8.94;76.86;100442.66;5027374;28;20052;-59
2023/12/10 08:51:54;;;;;;;3.38;2.17;;;;;;;-9.02;76.75;100448.91;5015956;28;20063;-59
2023/12/10 08:54:24;;;;;;;4.28;3.20;;;;;;;-8.97;75.99;100442.47;5027630;28;20053;-58
2023/12/10 08:56:55;;;;;;;5.35;2.67;;;;;;;-9.04;75.99;100450.44;5014179;28;20477;-59
2023/12/10 08:59:27;;;;;;;9.15;4.43;;;;;;;-8.96;76.68;100461.94;5025253;28;20194;-59
2023/12/10 09:01:57;;;;;;;9.18;3.53;;;;;;;-9.29;76.61;100415.94;5027388;28;20114;-59
2023/12/10 09:04:28;;;;;;;12.93;6.43;;;;;;;-9.06;76.92;100462.13;5016750;28;20113;-59
2023/12/10 09:06:59;;;;;;;8.85;5.28;;;;;;;-8.96;77.14;100464.47;5025910;28;20049;-59
2023/12/10 09:09:32;;;;;;;5.60;2.70;;;;;;;-8.91;77.45;100464.00;5014986;28;20118;-59
2023/12/10 09:12:03;;;;;;;3.30;2.20;;;;;;;-8.86;77.50;100471.91;5028320;28;20814;-59
2023/12/10 09:14:36;;;;;;;5.15;2.50;;;;;;;-8.75;77.68;100470.91;5016850;28;20045;-59
2023/12/10 09:17:06;;;;;;;4.45;2.28;;;;;;;-8.68;78.18;100473.06;5025504;28;20169;-59
2023/12/10 09:19:37;;;;;;;6.22;2.80;;;;;;;-8.68;77.96;100470.53;5016510;28;20483;-58
2023/12/10 09:22:08;;;;;;;4.60;2.67;;;;;;;-8.71;77.87;100472.88;5029942;28;20053;-59
2023/12/10 09:24:39;;;;;;;8.73;3.88;;;;;;;-8.63;78.59;100472.50;5016322;28;20045;-59
2023/12/10 09:27:10;;;;;;;9.18;3.28;;;;;;;-8.63;78.13;100464.91;5027289;28;20056;-59
2023/12/10 09:29:44;;;;;;;6.85;2.65;;;;;;;-8.64;78.39;100463.13;5016968;28;20057;-59
2023/12/10 09:32:16;;;;;;;5.68;2.58;;;;;;;-8.55;78.57;100464.59;5028000;28;20101;-59
2023/12/10 09:34:47;;;;;;;10.23;4.25;;;;;;;-8.61;78.03;100470.91;5016450;28;20543;-59
2023/12/10 09:37:18;;;;;;;4.68;2.80;;;;;;;-8.90;78.56;100404.09;5027185;28;20044;-59
2023/12/10 09:39:49;;;;;;;5.47;2.50;;;;;;;-8.46;78.55;100469.38;5019989;28;20110;-59
2023/12/10 09:42:19;;;;;;;5.93;2.53;;;;;;;-8.54;78.23;100450.25;5024692;28;20053;-59
2023/12/10 09:44:52;;;;;;;7.18;2.63;;;;;;;-8.43;78.04;100469.56;5008574;28;20061;-59
2023/12/10 09:47:22;;;;;;;8.40;3.30;;;;;;;-8.39;78.52;100460.47;5021822;28;20071;-58
2023/12/10 09:49:55;;;;;;;6.70;2.83;;;;;;;-8.25;78.62;100460.50;5016048;28;20044;-58
2023/12/10 09:52:25;;;;;;;3.55;2.08;;;;;;;-8.39;76.99;100463.84;5022921;28;20285;-58
2023/12/10 09:54:57;;;;;;;8.77;2.88;;;;;;;-8.40;77.12;100459.59;5021957;28;20052;-59
2023/12/10 09:57:30;;;;;;;11.68;4.82;;;;;;;-8.44;76.73;100455.09;5014639;28;20459;-58
2023/12/10 10:00:02;;;;;;;7.45;2.70;;;;;;;-8.36;76.72;100461.53;5026125;28;20067;-59
2023/12/10 10:02:34;;;;;;;5.22;3.05;;;;;;;-8.28;76.61;100470.47;5007826;28;20521;-58
2023/12/10 10:05:07;;;;;;;16.35;5.43;;;;;;;-8.25;76.53;100454.56;5024491;28;20542;-58
2023/12/10 10:07:38;;;;;;;29.75;8.23;;;;;;;-8.36;76.26;100451.38;5015897;28;20081;-58
2023/12/10 10:10:11;;;;;;;21.60;6.88;;;;;;;-8.25;76.60;100445.31;5027185;28;20652;-58
2023/12/10 10:12:43;;;;;;;18.38;6.10;;;;;;;-8.20;76.20;100448.13;4996114;28;20080;-58
2023/12/10 10:15:27;;;;;;;28.05;9.55;;;;;;;-8.32;75.58;100440.63;5004792;28;20168;-58
2023/12/10 10:17:58;;;;;;;27.33;9.73;;;;;;;-8.30;75.68;100441.59;4995998;28;20049;-58
2023/12/10 10:20:31;;;;;;;28.42;8.73;;;;;;;-8.14;76.40;100442.53;5006625;28;20051;-58
2023/12/10 10:23:02;;;;;;;17.02;7.07;;;;;;;-8.08;76.47;100448.00;5025686;28;20081;-58
2023/12/10 10:25:33;;;;;;;11.60;5.70;;;;;;;-7.96;76.78;100440.22;5009490;28;20052;-58
2023/12/10 10:28:09;;;;;;;9.80;5.30;;;;;;;-8.13;76.21;100444.31;5027810;28;20171;-58
2023/12/10 10:30:41;;;;;;;12.55;5.78;;;;;;;-8.16;76.54;100446.63;5015210;28;20136;-58
2023/12/10 10:33:13;;;;;;;10.43;4.85;;;;;;;-8.29;76.39;100443.34;5025134;28;20058;-59
2023/12/10 10:35:43;;;;;;;6.65;3.50;;;;;;;-8.38;76.48;100447.88;5015469;28;20251;-58
2023/12/10 10:38:16;;;;;;;6.32;3.42;;;;;;;-8.41;76.52;100447.72;5030415;28;20487;-58
2023/12/10 10:40:47;;;;;;;9.88;4.30;;;;;;;-8.47;76.66;100442.25;5018398;28;21693;-58
2023/12/10 10:43:17;;;;;;;5.55;3.40;;;;;;;-8.61;77.00;100437.97;5029065;28;20167;-59
2023/12/10 10:45:50;;;;;;;10.93;3.38;;;;;;;-8.61;77.27;100440.50;5013635;28;20652;-59
2023/12/10 10:48:21;;;;;;;7.28;3.40;;;;;;;-8.54;77.56;100445.19;5028555;28;20057;-59
2023/12/10 10:50:54;;;;;;;5.25;2.70;;;;;;;-8.50;77.87;100431.94;5018436;28;20461;-58
2023/12/10 10:53:25;;;;;;;4.72;2.58;;;;;;;-8.48;77.87;100440.53;5028799;28;20045;-59
2023/12/10 10:55:55;;;;;;;7.55;2.80;;;;;;;-8.66;77.21;100441.88;5019183;28;20207;-58
2023/12/10 10:58:28;;;;;;;5.90;2.47;;;;;;;-8.71;77.77;100445.03;5019590;28;20424;-58
2023/12/10 11:01:01;;;;;;;9.45;3.15;;;;;;;-8.49;79.11;100438.75;5030514;28;20145;-58
2023/12/10 11:03:32;;;;;;;5.00;2.88;;;;;;;-8.25;79.32;100437.69;5020274;28;20037;-58
2023/12/10 11:06:04;;;;;;;5.13;2.85;;;;;;;-8.26;78.85;100443.56;5030048;28;20079;-59
2023/12/10 11:08:36;;;;;;;5.63;2.53;;;;;;;-8.26;79.62;100437.63;5010068;28;20052;-58
2023/12/10 11:11:08;;;;;;;8.32;2.90;;;;;;;-8.32;79.25;100438.09;5027292;28;20053;-59
2023/12/10 11:13:44;;;;;;;4.43;2.70;;;;;;;-8.31;78.91;100441.50;5009210;28;20131;-59
2023/12/10 11:16:16;;;;;;;6.50;2.88;;;;;;;-8.25;78.78;100439.38;5026718;28;20057;-59
2023/12/10 11:18:54;;;;;;;5.20;2.90;;;;;;;-8.30;78.83;100461.88;5017272;28;20488;-59
2023/12/10 11:21:24;;;;;;;6.15;2.58;;;;;;;-8.41;78.25;100447.72;5023889;28;20049;-59
2023/12/10 11:23:55;;;;;;;5.30;2.50;;;;;;;-8.50;78.78;100457.28;5019142;28;20068;-59
2023/12/10 11:26:26;;;;;;;10.95;3.22;;;;;;;-8.41;79.09;100452.78;5026930;28;20049;-58
2023/12/10 11:28:56;;;;;;;7.15;3.40;;;;;;;-8.30;79.04;100461.88;5026734;28;20135;-59
2023/12/10 11:31:28;;;;;;;4.47;2.60;;;;;;;-8.33;79.17;100456.63;5021479;28;20097;-59
2023/12/10 11:33:59;;;;;;;7.75;2.95;;;;;;;-8.19;79.99;100456.59;5019539;28;20049;-59
2023/12/10 11:36:30;;;;;;;6.85;2.78;;;;;;;-8.31;79.02;100451.63;5015166;28;20049;-58
2023/12/10 11:39:13;;;;;;;8.68;2.88;;;;;;;-8.47;78.83;100457.47;5017568;28;20049;-58
2023/12/10 11:41:45;;;;;;;7.20;2.75;;;;;;;-8.56;78.83;100457.78;5011791;28;20152;-59
2023/12/10 11:44:31;;;;;;;3.53;2.47;;;;;;;-8.52;79.23;100458.81;5019078;28;20487;-59
2023/12/10 11:47:05;;;;;;;8.93;2.70;;;;;;;-8.60;78.95;100452.41;5027225;28;20056;-59